Time;durP1;ratioP1;P1;durP2;ratioP2;P2;SDS_P1;SDS_P2;PMS_P1;PMS_P2;Temp;Humidity;BMP_temperature;BMP_pressure;BME280_temperature;BME280_humidity;BME280_pressure;Samples;Min_cycle;Max_cycle;Signal;HPM_P1;HPM_P2
2022/07/13 00:01:26;;;;;;;3.60;1.80;;;;;;;21.90;48.46;98183.25;5072074;28;20673;-70
2022/07/13 00:03:52;;;;;;;2.47;1.97;;;;;;;21.86;47.99;98180.16;5070901;28;20202;-71
2022/07/13 00:06:18;;;;;;;5.27;2.50;;;;;;;21.90;47.94;98178.75;5070266;28;20202;-70
2022/07/13 00:08:44;;;;;;;5.23;1.90;;;;;;;21.84;48.17;98179.53;5070966;28;20514;-70
2022/07/13 00:11:10;;;;;;;2.10;1.90;;;;;;;21.79;48.35;98184.66;5073005;28;20425;-70
2022/07/13 00:13:35;;;;;;;2.40;2.10;;;;;;;21.77;48.45;98179.50;5070799;28;20178;-72
2022/07/13 00:16:01;;;;;;;3.23;2.00;;;;;;;21.75;48.53;98175.41;5070511;28;20428;-71
2022/07/13 00:18:26;;;;;;;2.50;2.30;;;;;;;21.69;48.67;98181.53;5070085;28;20190;-71
2022/07/13 00:20:52;;;;;;;2.53;1.87;;;;;;;21.69;48.53;98184.19;5070532;28;20217;-72
2022/07/13 00:23:17;;;;;;;4.17;2.07;;;;;;;21.67;48.59;98183.59;5069069;28;20189;-71
2022/07/13 00:25:43;;;;;;;3.33;1.97;;;;;;;21.67;48.38;98176.41;5070432;28;20739;-71
2022/07/13 00:28:08;;;;;;;5.90;1.70;;;;;;;21.57;48.71;98168.75;5068367;28;20659;-70
2022/07/13 00:30:33;;;;;;;3.50;1.97;;;;;;;21.55;48.94;98180.66;5075915;28;20181;-70
2022/07/13 00:32:59;;;;;;;3.73;1.47;;;;;;;21.56;48.70;98177.75;5074514;28;20186;-71
2022/07/13 00:35:24;;;;;;;2.20;1.70;;;;;;;21.50;48.72;98178.59;5069286;28;20174;-70
2022/07/13 00:37:50;;;;;;;3.93;1.60;;;;;;;21.41;48.89;98185.13;5070162;28;20178;-70
2022/07/13 00:40:15;;;;;;;2.50;2.30;;;;;;;21.46;49.08;98185.31;5070147;28;20235;-72
2022/07/13 00:42:41;;;;;;;3.30;1.80;;;;;;;21.46;48.88;98188.00;5070348;28;20174;-70
2022/07/13 00:45:07;;;;;;;3.10;1.83;;;;;;;21.37;49.24;98191.84;5068842;28;20182;-71
2022/07/13 00:47:33;;;;;;;1.70;1.60;;;;;;;21.39;49.10;98181.81;5070189;28;20182;-72
2022/07/13 00:50:00;;;;;;;2.10;1.70;;;;;;;21.45;49.16;98187.19;5061473;28;20238;-71
2022/07/13 00:52:26;;;;;;;1.40;1.30;;;;;;;21.43;49.05;98188.38;5070486;28;20181;-72
2022/07/13 00:54:51;;;;;;;4.20;1.70;;;;;;;21.30;49.49;98183.81;5056149;28;21052;-71
2022/07/13 00:57:17;;;;;;;3.77;1.43;;;;;;;21.28;49.49;98178.69;5073807;28;20524;-71
2022/07/13 00:59:42;;;;;;;8.63;1.50;;;;;;;21.25;49.52;98181.75;5075512;28;20568;-71
2022/07/13 01:02:08;;;;;;;2.50;1.60;;;;;;;21.27;49.12;98184.22;5056059;28;20228;-71
2022/07/13 01:04:33;;;;;;;2.00;1.50;;;;;;;21.30;49.23;98173.16;5074068;28;20560;-71
2022/07/13 01:06:59;;;;;;;2.10;1.60;;;;;;;21.15;49.29;98173.31;5073784;28;20217;-72
2022/07/13 01:09:26;;;;;;;1.70;1.60;;;;;;;21.14;49.54;98174.31;5076936;28;20214;-72
2022/07/13 01:11:52;;;;;;;2.70;1.57;;;;;;;21.10;49.39;98178.38;5074099;28;20507;-72
2022/07/13 01:14:17;;;;;;;2.30;1.83;;;;;;;21.09;49.75;98174.91;5080948;28;20444;-72
2022/07/13 01:16:44;;;;;;;5.10;1.77;;;;;;;21.01;49.83;98162.56;5073624;28;20419;-71
2022/07/13 01:19:13;;;;;;;2.53;1.60;;;;;;;21.04;49.99;98168.53;5072112;28;20236;-71
2022/07/13 01:21:45;;;;;;;2.23;1.40;;;;;;;21.02;49.58;98168.69;5073686;28;21056;-72
2022/07/13 01:24:12;;;;;;;8.40;1.50;;;;;;;20.98;49.27;98170.13;5073393;28;20409;-71
2022/07/13 01:26:38;;;;;;;1.50;1.33;;;;;;;21.10;49.51;98165.06;5073559;28;20482;-70
2022/07/13 01:29:04;;;;;;;2.10;1.60;;;;;;;21.11;49.54;98158.72;5077514;28;20970;-72
2022/07/13 01:31:37;;;;;;;7.20;1.63;;;;;;;21.12;49.43;98161.16;5073579;28;20428;-71
2022/07/13 01:34:03;;;;;;;1.87;1.67;;;;;;;21.10;49.78;98162.41;5067493;28;20222;-71
2022/07/13 01:36:29;;;;;;;2.23;1.67;;;;;;;21.15;49.49;98159.97;5074340;28;20500;-72
2022/07/13 01:38:55;;;;;;;2.40;1.63;;;;;;;21.15;49.63;98159.97;5073426;28;20523;-70
2022/07/13 01:41:21;;;;;;;2.90;1.70;;;;;;;21.15;49.52;98165.31;5073419;28;20179;-71
2022/07/13 01:43:47;;;;;;;1.23;1.00;;;;;;;21.15;49.28;98160.78;5072359;28;20423;-70
2022/07/13 01:46:12;;;;;;;1.70;1.30;;;;;;;21.12;49.37;98163.03;5072927;28;20248;-70
2022/07/13 01:48:38;;;;;;;4.40;1.70;;;;;;;21.08;49.70;98159.94;5071744;28;20221;-71
2022/07/13 01:51:03;;;;;;;2.20;1.40;;;;;;;21.06;49.65;98161.13;5073090;28;20265;-70
2022/07/13 01:53:29;;;;;;;2.37;1.27;;;;;;;20.97;49.45;98163.97;5081162;28;20198;-71
2022/07/13 01:55:54;;;;;;;2.47;1.60;;;;;;;21.05;49.51;98164.81;5073359;28;20175;-70
2022/07/13 01:58:19;;;;;;;1.63;1.53;;;;;;;21.08;49.81;98159.09;5072837;28;20206;-72
2022/07/13 02:00:45;;;;;;;2.33;1.50;;;;;;;21.07;49.87;98163.63;5074109;28;20682;-70
2022/07/13 02:03:10;;;;;;;1.40;1.30;;;;;;;21.07;50.27;98157.44;5071101;28;20180;-71
2022/07/13 02:05:36;;;;;;;1.77;1.30;;;;;;;21.07;49.64;98157.44;5072952;28;20257;-72
2022/07/13 02:08:02;;;;;;;2.50;1.37;;;;;;;21.09;49.97;98145.59;5071129;28;20607;-70
2022/07/13 02:10:36;;;;;;;1.60;1.50;;;;;;;21.14;49.85;98148.47;5076252;28;20223;-70
2022/07/13 02:13:06;;;;;;;2.27;1.37;;;;;;;21.17;49.65;98155.28;5066940;28;20409;-71
2022/07/13 02:15:32;;;;;;;2.27;1.63;;;;;;;21.13;49.41;98146.03;5072785;28;20409;-70
2022/07/13 02:17:57;;;;;;;1.60;1.30;;;;;;;21.10;49.24;98141.91;5072497;28;20996;-71
2022/07/13 02:20:23;;;;;;;1.93;1.40;;;;;;;21.05;50.06;98127.50;5071784;28;20179;-71
2022/07/13 02:22:48;;;;;;;2.13;1.67;;;;;;;20.97;50.31;98125.84;5072799;28;20886;-71
2022/07/13 02:25:14;;;;;;;6.93;1.40;;;;;;;21.04;50.00;98131.22;5071200;28;20179;-71
2022/07/13 02:27:40;;;;;;;3.60;1.60;;;;;;;21.02;50.22;98128.72;5068050;28;20175;-72
2022/07/13 02:30:06;;;;;;;2.73;1.50;;;;;;;21.00;49.94;98128.94;5070268;28;20207;-71
2022/07/13 02:32:32;;;;;;;3.40;1.37;;;;;;;21.00;50.41;98120.94;5069832;28;20449;-71
2022/07/13 02:34:57;;;;;;;1.70;1.30;;;;;;;20.98;50.56;98114.19;5072889;28;20468;-71
2022/07/13 02:37:23;;;;;;;2.87;1.47;;;;;;;21.05;50.51;98116.84;5070856;28;20182;-71
2022/07/13 02:39:51;;;;;;;3.30;1.47;;;;;;;21.07;50.11;98106.81;5072127;28;20218;-72
2022/07/13 02:42:17;;;;;;;1.60;1.23;;;;;;;21.01;50.17;98103.94;5070921;28;20202;-70
2022/07/13 02:44:42;;;;;;;1.30;1.20;;;;;;;21.05;50.00;98101.69;5072415;28;20936;-70
2022/07/13 02:47:08;;;;;;;3.90;1.63;;;;;;;21.09;50.17;98099.44;5071537;28;20182;-70
2022/07/13 02:49:33;;;;;;;1.40;1.00;;;;;;;21.11;49.95;98094.75;5068253;28;20212;-69
2022/07/13 02:51:58;;;;;;;2.07;1.67;;;;;;;21.13;50.24;98088.19;5072117;28;20261;-70
2022/07/13 02:54:24;;;;;;;2.03;1.20;;;;;;;21.09;49.84;98102.13;5071813;28;20790;-71
2022/07/13 02:56:49;;;;;;;2.17;1.50;;;;;;;21.00;49.72;98101.47;5068935;28;20257;-70
2022/07/13 02:59:15;;;;;;;1.50;1.40;;;;;;;21.00;49.94;98104.97;5077203;28;20217;-71
2022/07/13 03:01:40;;;;;;;1.57;1.47;;;;;;;20.99;50.21;98103.31;5071997;28;20253;-71
2022/07/13 03:04:06;;;;;;;2.63;1.33;;;;;;;20.97;49.82;98097.34;5071502;28;20321;-70
2022/07/13 03:06:32;;;;;;;9.40;1.70;;;;;;;20.94;50.10;98100.41;5067348;28;20179;-72
2022/07/13 03:08:57;;;;;;;1.50;1.40;;;;;;;20.98;50.27;98104.34;5074373;28;20529;-71
2022/07/13 03:11:23;;;;;;;1.77;1.53;;;;;;;20.98;49.95;98106.19;5078236;28;20192;-72
2022/07/13 03:13:48;;;;;;;1.30;1.20;;;;;;;20.92;50.30;98107.75;5071840;28;20181;-71
2022/07/13 03:16:14;;;;;;;2.03;1.53;;;;;;;20.91;50.11;98115.97;5070619;28;20546;-71
2022/07/13 03:18:39;;;;;;;1.97;1.30;;;;;;;20.77;50.67;98105.25;5068511;28;20217;-72
2022/07/13 03:21:08;;;;;;;4.20;1.90;;;;;;;20.75;50.88;98104.59;5071439;28;20174;-72
2022/07/13 03:23:35;;;;;;;1.77;1.63;;;;;;;20.75;50.99;98095.81;5070582;28;20527;-70
2022/07/13 03:26:00;;;;;;;1.70;1.60;;;;;;;20.72;51.36;98097.81;5071609;28;20767;-71
2022/07/13 03:28:26;;;;;;;3.10;1.93;;;;;;;20.66;51.46;98092.44;5071672;28;20490;-71
2022/07/13 03:30:51;;;;;;;2.80;1.90;;;;;;;20.63;51.43;98099.00;5072305;28;20300;-70
2022/07/13 03:33:16;;;;;;;1.87;1.50;;;;;;;20.61;51.35;98095.69;5070517;28;20201;-71
2022/07/13 03:35:42;;;;;;;1.70;1.60;;;;;;;20.61;51.54;98094.84;5072642;28;20178;-71
2022/07/13 03:38:08;;;;;;;1.60;1.40;;;;;;;20.58;51.62;98095.28;5069959;28;20194;-71
2022/07/13 03:40:33;;;;;;;3.37;1.80;;;;;;;20.55;51.60;98096.47;5062015;28;20704;-71
2022/07/13 03:42:59;;;;;;;1.67;1.47;;;;;;;20.54;51.63;98097.50;5066766;28;20178;-72
2022/07/13 03:45:24;;;;;;;2.87;2.23;;;;;;;20.51;51.55;98098.69;5070391;28;20170;-71
2022/07/13 03:47:50;;;;;;;2.33;2.13;;;;;;;20.49;51.66;98097.25;5059046;28;20225;-71
2022/07/13 03:50:15;;;;;;;2.80;1.60;;;;;;;20.48;51.88;98101.72;5066905;28;20198;-72
2022/07/13 03:52:40;;;;;;;3.40;1.57;;;;;;;20.34;51.95;98102.69;5081442;28;20653;-72
2022/07/13 03:55:07;;;;;;;3.57;1.70;;;;;;;20.38;52.30;98102.09;5085104;28;20265;-71
2022/07/13 03:57:33;;;;;;;2.70;2.00;;;;;;;20.39;51.96;98109.06;5080664;28;20177;-72
2022/07/13 03:59:58;;;;;;;4.10;1.90;;;;;;;20.40;51.83;98100.06;5069811;28;20451;-71
2022/07/13 04:02:24;;;;;;;3.20;2.90;;;;;;;20.41;52.09;98101.69;5080323;28;20741;-71
2022/07/13 04:04:49;;;;;;;7.77;2.00;;;;;;;20.42;52.13;98100.69;5087209;28;20701;-71
2022/07/13 04:07:15;;;;;;;1.70;1.60;;;;;;;20.47;52.11;98100.13;5082136;28;20230;-71
2022/07/13 04:09:40;;;;;;;1.57;1.47;;;;;;;20.45;51.91;98103.97;5071808;28;20281;-71
2022/07/13 04:12:06;;;;;;;1.73;1.60;;;;;;;20.51;51.88;98098.69;5069525;28;20261;-71
2022/07/13 04:14:31;;;;;;;2.20;1.93;;;;;;;20.59;51.96;98094.25;5072508;28;20173;-71
2022/07/13 04:16:57;;;;;;;3.30;2.00;;;;;;;20.56;52.08;98085.63;5056942;28;20249;-73
2022/07/13 04:19:22;;;;;;;2.20;2.00;;;;;;;20.56;52.06;98085.63;5068191;28;20198;-73
2022/07/13 04:21:47;;;;;;;3.40;2.30;;;;;;;20.51;52.28;98081.91;5087096;28;20311;-71
2022/07/13 04:24:13;;;;;;;1.83;1.47;;;;;;;20.48;52.38;98079.63;5083709;28;20265;-71
2022/07/13 04:26:38;;;;;;;8.03;2.40;;;;;;;20.50;52.58;98078.41;5072892;28;20711;-73
2022/07/13 04:29:04;;;;;;;4.40;1.93;;;;;;;20.52;52.91;98076.38;5078089;28;20835;-72
2022/07/13 04:31:29;;;;;;;3.40;1.60;;;;;;;20.50;52.67;98069.63;5079495;28;20176;-71
2022/07/13 04:33:55;;;;;;;4.17;1.90;;;;;;;20.55;53.24;98070.66;5085957;28;20186;-71
2022/07/13 04:36:20;;;;;;;3.20;2.10;;;;;;;20.62;52.58;98065.38;5069835;28;20212;-70
2022/07/13 04:38:46;;;;;;;2.23;1.73;;;;;;;20.64;52.47;98063.34;5080901;28;20722;-72
2022/07/13 04:41:11;;;;;;;3.67;2.00;;;;;;;20.61;52.46;98057.56;5083556;28;20256;-72
2022/07/13 04:43:36;;;;;;;6.53;1.80;;;;;;;20.68;52.31;98064.59;5072858;28;20174;-71
2022/07/13 04:46:02;;;;;;;3.53;1.90;;;;;;;20.77;52.37;98064.47;5070727;28;20178;-71
2022/07/13 04:48:28;;;;;;;3.50;2.07;;;;;;;20.79;52.63;98065.09;5073957;28;20211;-72
2022/07/13 04:50:53;;;;;;;5.00;2.07;;;;;;;20.80;52.54;98056.06;5069945;28;20183;-72
2022/07/13 04:53:19;;;;;;;3.00;2.23;;;;;;;20.76;52.67;98060.16;5080184;28;20204;-71
2022/07/13 04:55:44;;;;;;;2.33;1.90;;;;;;;20.82;52.59;98070.00;5061638;28;20179;-74
2022/07/13 04:58:10;;;;;;;7.93;1.83;;;;;;;20.86;52.43;98069.41;5078282;28;20289;-72
2022/07/13 05:00:35;;;;;;;2.80;2.03;;;;;;;20.84;51.37;98073.31;5071827;28;20555;-72
2022/07/13 05:03:01;;;;;;;2.23;2.00;;;;;;;20.87;51.56;98081.72;5072307;28;20179;-72
2022/07/13 05:05:31;;;;;;;1.80;1.70;;;;;;;20.93;51.42;98082.78;5061565;28;20693;-72
2022/07/13 05:08:00;;;;;;;6.80;2.00;;;;;;;20.99;51.56;98083.81;5073372;28;20186;-72
2022/07/13 05:10:25;;;;;;;6.50;1.67;;;;;;;21.02;51.71;98086.94;5076828;28;20535;-72
2022/07/13 05:12:51;;;;;;;2.30;2.10;;;;;;;20.99;52.03;98092.66;5061561;28;20501;-71
2022/07/13 05:15:17;;;;;;;2.10;1.90;;;;;;;20.99;52.22;98084.66;5061524;28;20175;-72
2022/07/13 05:17:43;;;;;;;2.37;2.17;;;;;;;21.08;52.44;98085.31;5064586;28;20182;-72
2022/07/13 05:20:09;;;;;;;2.83;1.90;;;;;;;21.17;52.35;98078.78;5074545;28;20440;-72
2022/07/13 05:22:35;;;;;;;6.93;1.83;;;;;;;21.19;51.66;98083.91;5060762;28;20533;-70
2022/07/13 05:25:00;;;;;;;1.87;1.60;;;;;;;21.26;51.42;98087.44;5058818;28;20421;-70
2022/07/13 05:27:26;;;;;;;2.27;1.60;;;;;;;21.35;50.69;98092.56;5064498;28;20710;-69
2022/07/13 05:29:51;;;;;;;1.50;1.40;;;;;;;21.44;50.73;98089.53;5053424;28;20226;-69
2022/07/13 05:32:17;;;;;;;2.20;1.63;;;;;;;21.56;50.40;98081.75;5074498;28;20178;-70
2022/07/13 05:34:42;;;;;;;1.63;1.50;;;;;;;21.62;50.45;98085.50;5069947;28;20197;-73
2022/07/13 05:37:09;;;;;;;1.97;1.60;;;;;;;21.75;49.94;98080.19;5079409;28;20174;-70
2022/07/13 05:39:34;;;;;;;3.57;1.50;;;;;;;21.89;49.53;98066.88;5065954;28;20281;-69
2022/07/13 05:42:00;;;;;;;4.10;1.40;;;;;;;22.01;49.63;98075.09;5080003;28;20962;-70
2022/07/13 05:44:25;;;;;;;2.30;1.63;;;;;;;22.13;49.42;98070.78;5070736;28;20243;-72
2022/07/13 05:46:51;;;;;;;3.80;2.00;;;;;;;22.29;49.61;98066.84;5060095;28;20190;-70
2022/07/13 05:49:16;;;;;;;6.23;1.87;;;;;;;22.15;49.47;98068.72;5051626;28;20217;-71
2022/07/13 05:51:42;;;;;;;5.60;1.70;;;;;;;22.32;48.89;98074.47;5057155;28;20205;-73
2022/07/13 05:54:07;;;;;;;7.70;1.53;;;;;;;22.52;48.79;98074.47;5054743;28;20546;-71
2022/07/13 05:56:33;;;;;;;6.10;1.50;;;;;;;22.68;48.20;98070.53;5056696;28;20261;-69
2022/07/13 05:58:59;;;;;;;2.90;1.97;;;;;;;22.83;48.16;98069.47;5052800;28;21000;-70
2022/07/13 06:01:25;;;;;;;4.90;2.00;;;;;;;22.92;47.81;98078.06;5053111;28;20228;-71
2022/07/13 06:03:50;;;;;;;2.03;1.57;;;;;;;23.05;47.48;98071.84;5055083;28;20430;-71
2022/07/13 06:06:16;;;;;;;7.43;1.50;;;;;;;23.22;47.50;98066.84;5056622;28;20669;-73
2022/07/13 06:08:42;;;;;;;13.63;1.90;;;;;;;23.37;47.29;98072.75;5066598;28;20206;-70
2022/07/13 06:11:07;;;;;;;4.33;1.83;;;;;;;23.55;47.31;98065.88;5065681;28;20182;-70
2022/07/13 06:13:33;;;;;;;6.93;1.80;;;;;;;23.63;47.37;98068.28;5067322;28;20410;-70
2022/07/13 06:15:59;;;;;;;4.60;1.83;;;;;;;23.71;47.17;98062.66;5062807;28;20932;-71
2022/07/13 06:18:25;;;;;;;1.93;1.60;;;;;;;23.81;47.26;98064.88;5057940;28;20213;-70
2022/07/13 06:20:51;;;;;;;4.80;1.50;;;;;;;23.88;47.09;98068.28;5066547;28;20428;-71
2022/07/13 06:23:18;;;;;;;7.63;1.70;;;;;;;23.92;46.03;98058.81;5060796;28;20468;-74
2022/07/13 06:25:46;;;;;;;5.30;1.50;;;;;;;23.90;45.15;98062.75;5065411;28;20189;-71
2022/07/13 06:28:12;;;;;;;3.77;1.70;;;;;;;23.96;45.08;98063.75;5062785;28;20437;-70
2022/07/13 06:30:37;;;;;;;4.10;1.20;;;;;;;24.02;45.00;98066.38;5060754;28;20452;-70
2022/07/13 06:33:03;;;;;;;4.73;1.50;;;;;;;24.10;45.38;98067.97;5060890;28;20283;-70
2022/07/13 06:35:29;;;;;;;6.53;1.50;;;;;;;24.11;44.37;98074.13;5060504;28;20177;-70
2022/07/13 06:37:55;;;;;;;2.93;1.20;;;;;;;24.18;44.29;98067.69;5061164;28;20181;-71
2022/07/13 06:40:20;;;;;;;3.57;0.93;;;;;;;24.18;41.69;98070.38;5061022;28;20460;-72
2022/07/13 06:42:46;;;;;;;4.10;1.33;;;;;;;24.27;41.61;98072.75;5061045;28;20174;-70
2022/07/13 06:45:11;;;;;;;5.67;1.20;;;;;;;24.37;41.63;98071.22;5060712;28;20248;-70
2022/07/13 06:47:38;;;;;;;2.13;1.30;;;;;;;24.45;41.96;98072.81;5068447;28;20193;-71
2022/07/13 06:50:06;;;;;;;1.73;1.00;;;;;;;24.50;41.49;98072.13;5059486;28;20619;-71
2022/07/13 06:52:32;;;;;;;2.67;1.07;;;;;;;24.60;41.11;98077.00;5056233;28;20482;-70
2022/07/13 06:54:57;;;;;;;2.60;1.17;;;;;;;24.74;41.73;98083.03;5057586;28;20418;-70
2022/07/13 06:57:22;;;;;;;6.53;1.00;;;;;;;24.88;40.85;98067.66;5055554;28;20184;-71
2022/07/13 06:59:48;;;;;;;1.93;1.30;;;;;;;24.97;40.31;98061.75;5056133;28;20624;-70
2022/07/13 07:02:13;;;;;;;1.40;0.83;;;;;;;25.11;40.02;98061.59;5052553;28;20194;-70
2022/07/13 07:04:39;;;;;;;1.30;1.00;;;;;;;25.23;39.79;98073.19;5053800;28;20206;-70
2022/07/13 07:07:04;;;;;;;1.27;0.90;;;;;;;25.36;40.00;98057.94;5059389;28;20175;-70
2022/07/13 07:09:30;;;;;;;1.23;1.10;;;;;;;25.60;39.76;98070.44;5055478;28;20217;-69
2022/07/13 07:11:55;;;;;;;2.13;1.00;;;;;;;25.85;38.81;98077.50;5065278;28;20253;-68
2022/07/13 07:14:21;;;;;;;3.00;1.00;;;;;;;26.04;38.74;98058.63;5053258;28;20183;-70
2022/07/13 07:16:47;;;;;;;5.83;0.90;;;;;;;26.28;39.14;98064.03;5052652;28;20614;-68
2022/07/13 07:19:12;;;;;;;2.03;1.17;;;;;;;26.53;38.68;98061.09;5056189;28;20274;-68
2022/07/13 07:21:38;;;;;;;1.83;0.90;;;;;;;26.78;38.56;98052.81;5066946;28;20185;-70
2022/07/13 07:24:04;;;;;;;2.50;0.90;;;;;;;27.02;38.12;98051.94;5066246;28;20641;-73
2022/07/13 07:26:32;;;;;;;1.67;1.00;;;;;;;27.20;37.56;98050.94;5059420;28;20182;-71
2022/07/13 07:28:58;;;;;;;6.00;1.10;;;;;;;27.39;37.31;98056.94;5070075;28;20461;-70
2022/07/13 07:31:25;;;;;;;5.77;1.10;;;;;;;27.52;37.29;98051.28;5058778;28;20874;-71
2022/07/13 07:33:51;;;;;;;1.93;0.80;;;;;;;27.67;36.81;98052.59;5065973;28;20424;-70
2022/07/13 07:36:16;;;;;;;3.07;1.00;;;;;;;27.85;36.57;98048.88;5070275;28;20512;-70
2022/07/13 07:38:43;;;;;;;2.07;1.10;;;;;;;28.04;36.05;98052.13;5065551;28;20563;-70
2022/07/13 07:41:10;;;;;;;1.60;1.00;;;;;;;28.27;34.22;98050.34;5057660;28;20270;-70
2022/07/13 07:43:38;;;;;;;10.43;1.10;;;;;;;28.27;33.48;98051.16;5051362;28;20479;-71
2022/07/13 07:46:04;;;;;;;1.50;0.70;;;;;;;28.49;33.59;98047.69;5053579;28;20420;-74
2022/07/13 07:48:29;;;;;;;1.50;1.03;;;;;;;28.66;33.35;98048.47;5054195;28;20440;-70
2022/07/13 07:50:55;;;;;;;5.60;1.00;;;;;;;28.76;32.60;98031.63;5065793;28;20213;-70
2022/07/13 07:53:20;;;;;;;1.43;1.00;;;;;;;28.66;31.53;98037.69;5062202;28;20685;-68
2022/07/13 07:55:46;;;;;;;5.13;0.80;;;;;;;28.46;30.75;98042.81;5058553;28;20194;-70
2022/07/13 07:58:13;;;;;;;1.30;0.90;;;;;;;28.31;31.40;98043.38;5047165;28;20195;-70
2022/07/13 08:00:42;;;;;;;0.90;0.70;;;;;;;28.24;31.80;98046.25;5054833;28;20182;-70
2022/07/13 08:03:08;;;;;;;2.70;1.07;;;;;;;28.26;31.58;98046.03;5062206;28;20470;-72
2022/07/13 08:05:34;;;;;;;3.53;0.80;;;;;;;28.44;31.64;98044.94;5056483;28;20445;-70
2022/07/13 08:07:59;;;;;;;7.37;0.93;;;;;;;28.36;31.48;98046.16;5064179;28;20448;-71
2022/07/13 08:10:25;;;;;;;8.30;0.80;;;;;;;28.33;31.55;98041.28;5062273;28;20202;-70
2022/07/13 08:12:51;;;;;;;2.33;1.00;;;;;;;28.15;30.85;98047.75;5063324;28;20179;-70
2022/07/13 08:15:16;;;;;;;0.90;0.70;;;;;;;28.43;30.22;98036.03;5061630;28;20229;-71
2022/07/13 08:17:42;;;;;;;6.00;1.00;;;;;;;28.60;30.81;98033.31;5054993;28;20186;-71
2022/07/13 08:20:08;;;;;;;1.00;0.67;;;;;;;28.66;31.26;98037.69;5062905;28;20281;-71
2022/07/13 08:22:34;;;;;;;0.90;0.80;;;;;;;28.79;31.00;98035.72;5063589;28;20235;-70
2022/07/13 08:24:59;;;;;;;0.80;0.60;;;;;;;28.79;30.12;98035.72;5063856;28;20873;-70
2022/07/13 08:27:26;;;;;;;5.37;0.93;;;;;;;28.90;30.37;98039.34;5061757;28;20193;-70
2022/07/13 08:29:51;;;;;;;5.03;1.20;;;;;;;28.92;30.61;98040.72;5054679;28;20205;-72
2022/07/13 08:32:17;;;;;;;1.60;0.67;;;;;;;28.95;30.49;98034.00;5061832;28;20794;-70
2022/07/13 08:40:10;;;;;;;1.17;0.80;;;;;;;28.67;29.87;98036.63;5056865;28;20932;-71
2022/07/13 08:42:36;;;;;;;4.80;1.00;;;;;;;28.87;30.06;98032.56;5070348;28;20429;-72
2022/07/13 08:45:03;;;;;;;3.63;0.80;;;;;;;28.98;29.46;98035.41;5070043;28;20409;-71
2022/07/13 08:47:29;;;;;;;2.17;0.90;;;;;;;29.03;29.36;98032.75;5063997;28;20421;-70
2022/07/13 08:49:57;;;;;;;1.20;0.93;;;;;;;29.03;29.21;98035.44;5070194;28;20463;-71
2022/07/13 08:52:25;;;;;;;1.63;0.90;;;;;;;29.22;29.36;98036.75;5075692;28;20421;-72
2022/07/13 08:54:51;;;;;;;1.03;0.80;;;;;;;29.23;29.36;98040.25;5069020;28;20916;-70
2022/07/13 08:57:17;;;;;;;1.93;0.83;;;;;;;29.40;28.59;98035.59;5068268;28;20419;-71
2022/07/13 08:59:43;;;;;;;1.47;0.90;;;;;;;29.63;29.19;98027.41;5066944;28;20673;-71
2022/07/13 09:02:09;;;;;;;1.60;1.10;;;;;;;29.87;28.53;98027.91;5070076;28;20462;-69
2022/07/13 09:04:34;;;;;;;3.63;0.80;;;;;;;30.11;28.17;98027.56;5069975;28;20183;-69
2022/07/13 09:07:00;;;;;;;2.67;0.80;;;;;;;30.30;28.05;98020.66;5069874;28;20408;-70
2022/07/13 09:09:35;;;;;;;1.10;0.90;;;;;;;30.45;28.00;98028.03;5070475;28;20195;-72
2022/07/13 09:12:21;;;;;;;1.77;0.83;;;;;;;30.49;27.96;98023.75;5070740;28;20185;-70
2022/07/13 09:14:54;;;;;;;4.80;1.00;;;;;;;30.68;27.98;98025.22;5066061;28;20420;-71
2022/07/13 09:17:34;;;;;;;0.90;0.70;;;;;;;30.95;27.58;98022.31;5072389;28;20417;-71
2022/07/13 09:20:15;;;;;;;5.33;1.47;;;;;;;31.21;27.28;98025.94;5074278;28;20530;-71
2022/07/13 09:23:01;;;;;;;1.00;0.90;;;;;;;31.28;26.45;98033.81;5070849;28;20428;-70
2022/07/13 09:25:29;;;;;;;7.03;0.93;;;;;;;31.36;26.30;98027.03;5073877;28;20519;-71
2022/07/13 09:27:55;;;;;;;0.90;0.80;;;;;;;31.58;26.23;98026.81;5075573;28;20421;-70
2022/07/13 09:30:25;;;;;;;3.90;0.70;;;;;;;31.38;24.88;98027.59;5073526;28;21006;-71
2022/07/13 09:32:55;;;;;;;4.03;0.80;;;;;;;31.52;23.82;98030.56;5071619;28;20468;-71
2022/07/13 09:35:21;;;;;;;2.40;0.90;;;;;;;31.82;24.53;98026.28;5073475;28;20411;-72
2022/07/13 09:37:48;;;;;;;1.50;0.90;;;;;;;31.99;24.64;98024.13;5073957;28;20791;-73
2022/07/13 09:40:18;;;;;;;4.07;1.43;;;;;;;32.20;24.83;98023.28;5070148;28;20488;-70
2022/07/13 09:42:45;;;;;;;3.30;0.90;;;;;;;32.27;23.41;98019.22;5073941;28;20417;-70
2022/07/13 09:47:57;;;;;;;6.03;2.10;;;;;;;32.47;24.10;98020.25;5058136;28;20425;-70
2022/07/13 09:50:37;;;;;;;3.43;3.13;;;;;;;32.65;23.89;98026.97;5058356;28;20521;-69
2022/07/13 09:53:03;;;;;;;1.17;1.07;;;;;;;32.80;23.44;98020.69;5058156;28;20426;-72
2022/07/13 09:55:31;;;;;;;2.30;0.70;;;;;;;32.96;23.13;98017.91;5057893;28;20503;-69
2022/07/13 09:57:59;;;;;;;3.13;1.90;;;;;;;33.10;22.86;98021.63;5057971;28;20417;-72
2022/07/13 10:00:27;;;;;;;5.63;1.93;;;;;;;33.28;22.91;98016.63;5056418;28;20440;-71
2022/07/13 10:02:52;;;;;;;1.30;0.80;;;;;;;33.38;21.24;98022.84;5056523;28;20420;-71
2022/07/13 10:05:18;;;;;;;1.20;1.00;;;;;;;33.56;21.20;98025.97;5054235;28;20425;-70
2022/07/13 10:07:46;;;;;;;2.40;0.73;;;;;;;33.74;20.83;98021.75;5055659;28;20187;-70
2022/07/13 10:10:12;;;;;;;1.60;1.50;;;;;;;33.89;20.53;98017.31;5056533;28;20235;-70
2022/07/13 10:12:38;;;;;;;1.10;0.80;;;;;;;34.00;20.12;98021.56;5069480;28;20429;-69
2022/07/13 10:15:04;;;;;;;2.30;0.97;;;;;;;34.09;19.78;98024.47;5064057;28;20936;-71
2022/07/13 10:17:30;;;;;;;1.27;0.70;;;;;;;34.07;20.13;98015.78;5057916;28;20214;-70
2022/07/13 10:19:55;;;;;;;2.90;0.73;;;;;;;34.11;19.95;98022.25;5067961;28;21004;-69
2022/07/13 10:22:23;;;;;;;1.73;0.77;;;;;;;34.25;19.36;98022.41;5064543;28;20273;-70
2022/07/13 10:24:52;;;;;;;0.90;0.70;;;;;;;34.40;19.00;98016.84;5059019;28;20174;-70
2022/07/13 10:27:26;;;;;;;1.30;0.60;;;;;;;34.13;19.01;98018.19;5063451;28;20426;-73
2022/07/13 10:29:53;;;;;;;1.20;0.90;;;;;;;34.31;18.26;98013.06;5062128;28;20895;-68
2022/07/13 10:32:23;;;;;;;2.30;0.70;;;;;;;34.44;18.34;98015.13;5065331;28;20475;-71
2022/07/13 10:34:54;;;;;;;0.90;0.63;;;;;;;34.59;19.12;98018.78;5065734;28;20855;-70
2022/07/13 10:37:19;;;;;;;1.93;0.90;;;;;;;34.75;19.12;98012.06;5066770;28;20441;-70
2022/07/13 10:40:12;;;;;;;1.20;0.60;;;;;;;34.91;17.26;98006.38;5060283;28;20503;-70
2022/07/13 10:43:00;;;;;;;2.00;0.80;;;;;;;34.38;17.94;98005.41;5065474;28;20563;-70
2022/07/13 10:45:31;;;;;;;1.20;0.70;;;;;;;34.72;17.27;98001.75;5071505;28;20566;-70
2022/07/13 10:47:57;;;;;;;0.80;0.57;;;;;;;34.90;17.20;98005.59;5072082;28;20427;-71
2022/07/13 10:50:22;;;;;;;1.30;0.60;;;;;;;34.98;17.24;98000.63;5072096;28;20456;-68
2022/07/13 10:52:48;;;;;;;2.83;0.67;;;;;;;35.16;16.67;97996.31;5072772;28;20273;-70
2022/07/13 10:55:22;;;;;;;2.33;0.70;;;;;;;35.05;15.36;97996.44;5071890;28;20188;-71
2022/07/13 10:57:48;;;;;;;0.90;0.60;;;;;;;35.21;15.39;97993.47;5070724;28;20178;-69
2022/07/13 11:00:28;;;;;;;1.50;0.70;;;;;;;35.36;15.61;97990.53;5068824;28;20467;-67
2022/07/13 11:03:07;;;;;;;2.30;0.90;;;;;;;35.56;16.66;97988.59;5063504;28;20178;-69
2022/07/13 11:05:36;;;;;;;1.40;0.83;;;;;;;35.70;16.70;97980.47;5056948;28;20435;-68
2022/07/13 11:08:15;;;;;;;1.03;0.90;;;;;;;35.75;16.69;97980.38;5056500;28;20424;-68
2022/07/13 11:10:40;;;;;;;1.80;0.70;;;;;;;35.89;16.62;97976.88;5056939;28;20453;-72
2022/07/13 11:13:09;;;;;;;1.00;0.83;;;;;;;35.97;15.61;97973.50;5061323;28;20419;-71
2022/07/13 11:15:47;;;;;;;1.33;1.23;;;;;;;35.92;15.01;97971.63;5051538;28;20178;-68
2022/07/13 11:18:21;;;;;;;3.50;2.70;;;;;;;35.97;15.40;97970.78;5054276;28;20599;-69
2022/07/13 11:21:10;;;;;;;3.13;0.70;;;;;;;35.65;15.01;97964.19;5054322;28;20452;-69
2022/07/13 11:26:38;;;;;;;1.83;1.10;;;;;;;35.17;15.06;97960.59;5033096;28;20771;-70
2022/07/13 11:29:25;;;;;;;0.90;0.70;;;;;;;35.44;15.21;97958.28;5055677;28;20822;-71
2022/07/13 11:31:55;;;;;;;2.87;0.60;;;;;;;35.30;14.92;97961.75;5054777;28;20405;-70
2022/07/13 11:34:21;;;;;;;0.90;0.60;;;;;;;35.07;14.78;97958.03;5055362;28;20512;-70
2022/07/13 11:36:47;;;;;;;1.93;0.60;;;;;;;35.20;15.24;97959.19;5071170;28;20436;-70
2022/07/13 11:39:27;;;;;;;0.90;0.60;;;;;;;35.19;14.07;97957.56;5064757;28;20850;-70
2022/07/13 11:41:56;;;;;;;0.83;0.50;;;;;;;35.16;14.57;97953.53;5067393;28;20212;-69
2022/07/13 11:44:25;;;;;;;1.47;0.70;;;;;;;35.41;14.76;97964.31;5070681;28;20420;-69